• Join FlightAware (Why Join?)
  • Login
  • US Flag 
06:58AM EDT


 

Airport Tracker/Info


-or-


 

Live Flight TrackerFlight Track Log ✈ OPT452 ✈ 11-May-2013 ✈ KLUK - KCGF

Flight Track Log - Related Links

Times and Time Zones

All times are in EDT time to prevent confusion due to time zone crossing. See the OPT452 flight status page for this flight to view local times or setup timezone preferences in your user account.

Time Position Orientation Groundspeed Altitude Reporting Facility
EDT Latitude Longitude Course Direction KTS MPH feet Rate Location/Type
09:11PM 39.0667 -84.3833 142° Southeast 193 222 2,900  Level Cincinnati TRACON
09:12PM 39.0842 -84.3353 65° Northeast 222 255 5,300 2,700 Climbing Indianapolis Center
09:13PM 39.1081 -84.2533 69° East 240 276 7,900 2,700 Climbing Indianapolis Center
09:14PM 39.1383 -84.1519 69° East 292 336 10,900 3,120 Climbing Indianapolis Center
09:15PM 39.1700 -84.0447 69° East 312 359 14,200 2,940 Climbing Indianapolis Center
09:16PM 39.2047 -83.9278 69° East 339 390 16,900 2,700 Climbing Indianapolis Center
09:17PM 39.2519 -83.8103 63° Northeast 362 417 19,700 1,980 Climbing Indianapolis Center
09:18PM 39.3014 -83.6878 62° Northeast 381 438 21,000 600 Climbing Indianapolis Center
09:19PM 39.3844 -83.5828 44° Northeast 414 476 21,000  Level Indianapolis Center
09:20PM 39.4706 -83.4794 43° Northeast 420 483 21,000  Level Indianapolis Center
09:21PM 39.5564 -83.3744 43° Northeast 421 484 21,000  Level Indianapolis Center
09:22PM 39.6425 -83.2703 43° Northeast 423 487 21,000  Level Indianapolis Center
09:23PM 39.7292 -83.1653 43° Northeast 426 490 21,000  Level Indianapolis Center
09:24PM 39.8161 -83.0594 43° Northeast 427 491 21,000  Level Indianapolis Center
09:25PM 39.9017 -82.9531 44° Northeast 426 490 21,000  Level Indianapolis Center
09:26PM 39.9889 -82.8458 43° Northeast 428 493 21,000  Level Indianapolis Center
09:27PM 40.0906 -82.7197 43° Northeast 428 493 21,000  Level Indianapolis Center
09:28PM 40.1781 -82.6111 43° Northeast 431 496 21,000  Level Indianapolis Center
09:29PM 40.2586 -82.5094 44° Northeast 430 495 21,000 -600 Level Indianapolis Center
09:30PM 40.3478 -82.3983 44° Northeast 437 503 19,800 -1,260 Descending Indianapolis Center
09:31PM 40.4369 -82.2853 44° Northeast 441 507 18,500 -1,260 Descending Indianapolis Center
09:32PM 40.5256 -82.1753 43° Northeast 436 502 17,300 -1,260 Descending Indianapolis Center
09:33PM 40.5972 -82.0817 45° Northeast 424 488 16,300 -1,380 Descending Cleveland Center
09:34PM 40.6839 -81.9739 43° Northeast 424 488 14,900 -1,380 Descending Cleveland Center
09:35PM 40.7667 -81.8661 45° Northeast 419 482 13,600 -1,320 Descending Cleveland Center
09:35PM 40.8153 -81.8067 43° Northeast 413 475 12,800 -1,440 Descending Cleveland Center
09:36PM 40.8492 -81.7606 46° Northeast 414 476 12,200 -1,320 Descending Cleveland Center
09:37PM 40.9333 -81.6661 40° Northeast 408 470 11,000 -600 Descending Cleveland Center
09:38PM 41.0317 -81.6292 16° North 374 430 11,000  Level Cleveland Center
09:39PM 41.1175 -81.6056 12° North 361 415 11,000  Level Cleveland Center
09:40PM 41.2197 -81.5769 12° North 356 410 11,000 -600 Level Cleveland Center
09:41PM 41.3158 -81.5561 North 336 387 9,800 -1,860 Descending Cleveland Center
09:42PM 41.3994 -81.5325 12° North 311 358 7,300 -2,520 Descending Cleveland Center
09:43PM 41.4706 -81.5003 19° North 280 322 4,800 -2,100 Descending Cleveland Center
09:44PM 41.5333 -81.4569 27° Northeast 259 298 3,200 -1,320 Descending Cleveland Center
09:45PM 41.5753 -81.4297 26° Northeast 200 230 2,200 -960 Descending Cleveland Center
09:46PM 41.5731 -81.4742 266° West 104 120 1,100 -900 Descending Cleveland Center
09:48PM 41.5651 -81.4864 66° East  Level Estimated
09:55PM 41.5651 -81.4864 66° East  Level Estimated